Time;durP1;ratioP1;P1;durP2;ratioP2;P2;SDS_P1;SDS_P2;PMS_P1;PMS_P2;Temp;Humidity;BMP_temperature;BMP_pressure;BME280_temperature;BME280_humidity;BME280_pressure;Samples;Min_cycle;Max_cycle;Signal;HPM_P1;HPM_P2
2022/09/23 00:00:36;;;;;;;4.83;4.33;;;7.80;99.90;;;;;;5014896;28;20177;-34
2022/09/23 00:03:03;;;;;;;5.23;4.73;;;7.70;99.90;;;;;;5015578;28;20216;-35
2022/09/23 00:05:29;;;;;;;5.70;4.53;;;7.70;99.90;;;;;;5046749;28;20183;-34
2022/09/23 00:07:56;;;;;;;5.50;4.63;;;7.70;99.90;;;;;;5016371;28;20281;-34
2022/09/23 00:10:23;;;;;;;6.43;5.13;;;7.70;99.90;;;;;;5019780;28;20290;-34
2022/09/23 00:12:50;;;;;;;5.77;4.77;;;7.60;99.90;;;;;;5035672;28;20288;-34
2022/09/23 00:15:16;;;;;;;5.07;4.27;;;7.60;99.90;;;;;;5000160;28;20332;-34
2022/09/23 00:17:43;;;;;;;4.13;3.73;;;7.60;99.90;;;;;;4999836;28;20189;-34
2022/09/23 00:20:09;;;;;;;5.57;4.63;;;7.50;99.90;;;;;;5034416;28;20188;-35
2022/09/23 00:22:36;;;;;;;5.10;4.50;;;7.50;99.90;;;;;;5019733;28;20243;-35
2022/09/23 00:25:08;;;;;;;5.13;4.33;;;7.50;99.90;;;;;;5019074;28;20200;-34
2022/09/23 00:27:34;;;;;;;6.60;4.77;;;7.40;99.90;;;;;;4999624;28;20260;-34
2022/09/23 00:30:02;;;;;;;7.37;5.13;;;7.40;99.90;;;;;;5015661;28;20172;-34
2022/09/23 00:32:28;;;;;;;5.20;4.63;;;7.40;99.90;;;;;;5035338;28;20223;-34
2022/09/23 00:34:54;;;;;;;4.70;4.17;;;7.30;99.90;;;;;;5004793;28;20189;-34
2022/09/23 00:37:20;;;;;;;6.57;4.93;;;7.30;99.90;;;;;;5015879;28;20193;-34
2022/09/23 00:39:46;;;;;;;6.73;4.60;;;7.30;99.90;;;;;;5011953;28;20187;-34
2022/09/23 00:42:19;;;;;;;5.63;4.70;;;7.20;99.90;;;;;;5035919;28;20206;-34
2022/09/23 00:44:58;;;;;;;6.07;4.73;;;7.20;99.90;;;;;;5023766;28;20193;-34
2022/09/23 00:47:51;;;;;;;5.20;4.70;;;7.20;99.90;;;;;;4999027;28;20320;-34
2022/09/23 00:50:32;;;;;;;5.63;4.90;;;7.10;99.90;;;;;;5016132;28;20194;-34
2022/09/23 00:53:02;;;;;;;5.53;4.97;;;7.00;99.90;;;;;;5011671;28;20226;-34
2022/09/23 00:55:33;;;;;;;5.53;4.67;;;6.90;99.90;;;;;;5035442;28;20195;-34
2022/09/23 00:58:03;;;;;;;5.43;4.90;;;6.90;99.90;;;;;;5006734;28;20193;-34
2022/09/23 01:00:28;;;;;;;5.90;4.87;;;7.00;99.90;;;;;;5015771;28;20179;-34
2022/09/23 01:02:54;;;;;;;5.00;4.40;;;7.00;99.90;;;;;;5031743;28;20205;-34
2022/09/23 01:05:20;;;;;;;5.93;4.53;;;7.00;99.90;;;;;;4998910;28;20181;-34
2022/09/23 01:07:47;;;;;;;4.40;3.90;;;7.10;99.90;;;;;;5007278;28;20204;-34
2022/09/23 01:10:15;;;;;;;3.70;3.40;;;7.20;99.90;;;;;;5035464;28;20189;-35
2022/09/23 01:12:56;;;;;;;5.47;3.73;;;7.20;99.90;;;;;;5011253;28;20201;-35
2022/09/23 01:15:37;;;;;;;5.80;4.10;;;7.10;99.90;;;;;;5031716;28;20718;-36
2022/09/23 01:18:21;;;;;;;5.93;3.70;;;7.10;99.90;;;;;;5016246;28;20184;-34
2022/09/23 01:21:07;;;;;;;4.70;3.70;;;7.10;99.90;;;;;;5031912;28;20183;-35
2022/09/23 01:23:56;;;;;;;5.30;3.37;;;7.10;99.90;;;;;;5070369;22;20227;-85
2022/09/23 01:26:50;;;;;;;5.83;3.83;;;7.10;99.90;;;;;;5018279;28;20207;-84
2022/09/23 01:29:25;;;;;;;5.47;3.70;;;7.10;99.90;;;;;;5001276;28;20189;-85
2022/09/23 01:32:18;;;;;;;4.00;3.60;;;7.00;99.90;;;;;;5001259;28;20184;-84
2022/09/23 01:35:18;;;;;;;3.90;3.33;;;6.90;99.90;;;;;;5017161;28;20219;-84
2022/09/23 01:37:49;;;;;;;3.80;3.40;;;6.80;99.90;;;;;;5017065;28;20175;-84
2022/09/23 01:40:27;;;;;;;4.97;4.03;;;6.70;99.90;;;;;;5000970;28;20186;-85
2022/09/23 01:43:08;;;;;;;4.10;3.70;;;6.70;99.90;;;;;;5017068;28;20180;-84
2022/09/23 01:45:56;;;;;;;3.83;3.47;;;6.60;99.90;;;;;;5000778;28;20206;-84
2022/09/23 01:48:45;;;;;;;4.30;3.90;;;6.50;99.90;;;;;;5016807;28;20207;-85
2022/09/23 01:51:18;;;;;;;4.70;3.87;;;6.50;99.90;;;;;;5000561;28;20175;-85
2022/09/23 01:54:21;;;;;;;4.40;3.97;;;6.30;99.90;;;;;;5000569;28;20296;-84
2022/09/23 01:56:53;;;;;;;4.00;3.60;;;6.30;99.90;;;;;;5010108;28;20183;-84
2022/09/23 01:59:35;;;;;;;4.20;3.80;;;6.40;99.90;;;;;;5020138;28;20178;-85
2022/09/23 02:02:10;;;;;;;5.37;3.67;;;6.40;99.90;;;;;;5035837;28;20197;-85
2022/09/23 02:04:38;;;;;;;4.97;4.10;;;6.40;99.90;;;;;;5036579;28;20214;-84
2022/09/23 02:07:21;;;;;;;4.83;4.00;;;6.50;99.90;;;;;;5019500;28;20210;-84
2022/09/23 02:09:54;;;;;;;4.17;3.60;;;6.40;99.90;;;;;;5019747;28;20254;-84
2022/09/23 02:12:23;;;;;;;5.90;3.73;;;6.40;99.90;;;;;;5020122;28;20225;-85
2022/09/23 02:14:58;;;;;;;5.87;3.60;;;6.50;99.90;;;;;;5019568;28;20272;-84
2022/09/23 02:17:50;;;;;;;3.97;3.57;;;6.50;99.90;;;;;;5036286;28;20626;-84
2022/09/23 02:20:23;;;;;;;5.30;3.93;;;6.50;99.90;;;;;;5019784;28;20174;-84
2022/09/23 02:22:55;;;;;;;5.23;4.00;;;6.50;99.90;;;;;;5012761;28;20195;-84
2022/09/23 02:25:31;;;;;;;12.77;3.80;;;6.50;99.90;;;;;;5015973;28;20231;-84
2022/09/23 02:28:13;;;;;;;4.33;3.63;;;6.50;99.90;;;;;;5015232;28;20214;-85
2022/09/23 02:30:55;;;;;;;4.03;3.70;;;6.40;99.90;;;;;;5016373;28;20160;-84
2022/09/23 02:33:28;;;;;;;4.57;3.83;;;6.30;99.90;;;;;;5016110;28;20213;-84
2022/09/23 02:36:04;;;;;;;6.83;4.40;;;6.20;99.90;;;;;;4999790;28;20209;-84
2022/09/23 02:38:33;;;;;;;5.33;4.00;;;6.10;99.90;;;;;;4999649;28;20177;-84
2022/09/23 02:41:13;;;;;;;4.93;4.00;;;6.20;99.90;;;;;;4999565;28;20241;-84
2022/09/23 02:44:02;;;;;;;4.03;3.63;;;6.30;99.90;;;;;;4999307;28;20179;-85
2022/09/23 02:46:29;;;;;;;4.30;3.90;;;6.30;99.90;;;;;;5015713;28;20195;-84
2022/09/23 02:49:04;;;;;;;4.37;3.97;;;6.30;99.90;;;;;;4999463;28;20219;-84
2022/09/23 02:51:33;;;;;;;4.30;3.90;;;6.30;99.90;;;;;;4999422;28;20214;-84
2022/09/23 02:54:02;;;;;;;7.30;4.33;;;6.20;99.90;;;;;;4999399;28;20198;-85
2022/09/23 02:56:28;;;;;;;7.40;4.60;;;6.30;99.90;;;;;;5022827;28;20286;-84
2022/09/23 02:58:54;;;;;;;5.50;4.23;;;6.30;99.90;;;;;;5034947;28;20181;-84
2022/09/23 03:01:46;;;;;;;6.60;4.70;;;6.20;99.90;;;;;;5014977;28;20186;-85
2022/09/23 03:04:49;;;;;;;8.67;4.87;;;6.20;99.90;;;;;;4998781;28;20189;-85
2022/09/23 03:07:18;;;;;;;5.20;4.40;;;6.20;99.90;;;;;;5030884;28;20210;-84
2022/09/23 03:09:44;;;;;;;5.30;4.40;;;6.20;99.90;;;;;;4998215;28;20180;-84
2022/09/23 03:12:22;;;;;;;5.10;4.60;;;6.20;99.90;;;;;;4999373;28;20205;-84
2022/09/23 03:15:00;;;;;;;5.07;4.57;;;6.20;99.90;;;;;;4999089;28;20238;-84
2022/09/23 03:17:33;;;;;;;4.73;4.23;;;6.10;99.90;;;;;;5014878;28;20178;-85
2022/09/23 03:20:02;;;;;;;5.80;4.20;;;6.00;99.90;;;;;;5015316;28;20189;-84
2022/09/23 03:22:50;;;;;;;4.90;3.90;;;6.10;99.90;;;;;;4998941;28;20206;-84
2022/09/23 03:25:21;;;;;;;4.90;4.40;;;6.00;99.90;;;;;;5016700;28;20233;-85
2022/09/23 03:27:47;;;;;;;4.93;4.27;;;6.00;99.90;;;;;;5000461;28;20234;-85
2022/09/23 03:30:13;;;;;;;4.57;4.17;;;6.00;99.90;;;;;;5015180;28;20281;-85
2022/09/23 03:32:46;;;;;;;6.67;4.27;;;6.00;99.90;;;;;;5030756;28;20197;-84
2022/09/23 03:35:16;;;;;;;6.67;4.50;;;6.00;99.90;;;;;;5014371;28;20702;-85
2022/09/23 03:37:45;;;;;;;4.73;4.20;;;6.00;99.90;;;;;;4997349;28;20184;-84
2022/09/23 03:40:19;;;;;;;6.87;4.43;;;5.90;99.90;;;;;;4997555;28;20187;-84
2022/09/23 03:43:00;;;;;;;5.67;4.43;;;5.80;99.90;;;;;;5014989;28;20172;-84
2022/09/23 03:45:31;;;;;;;4.47;4.07;;;5.80;99.90;;;;;;5015129;28;20276;-84
2022/09/23 03:47:56;;;;;;;5.00;3.87;;;5.70;99.90;;;;;;5014542;28;20206;-84
2022/09/23 03:50:22;;;;;;;5.03;4.20;;;5.80;99.90;;;;;;5014666;28;20170;-84
2022/09/23 03:52:49;;;;;;;4.70;4.20;;;5.80;99.90;;;;;;5001468;28;20254;-84
2022/09/23 03:55:16;;;;;;;5.90;4.00;;;5.80;99.90;;;;;;5072252;28;20295;-85
2022/09/23 03:57:43;;;;;;;4.53;4.13;;;5.80;99.90;;;;;;5000868;28;20205;-84
2022/09/23 04:00:16;;;;;;;5.10;3.80;;;5.70;99.90;;;;;;5014594;28;20182;-84
2022/09/23 04:02:43;;;;;;;4.57;4.07;;;5.70;99.90;;;;;;4998671;28;20183;-84
2022/09/23 04:05:10;;;;;;;7.07;4.40;;;5.60;99.90;;;;;;5014853;28;20264;-85
2022/09/23 04:07:37;;;;;;;5.03;4.30;;;5.60;99.90;;;;;;5014278;28;20214;-84
2022/09/23 04:10:04;;;;;;;4.80;4.30;;;5.50;99.90;;;;;;5014527;28;20206;-84
2022/09/23 04:12:30;;;;;;;4.87;4.40;;;5.50;99.90;;;;;;5014613;28;20174;-85
2022/09/23 04:15:04;;;;;;;4.63;4.17;;;5.50;99.90;;;;;;5009537;28;20198;-85
2022/09/23 04:17:30;;;;;;;7.47;4.43;;;5.50;99.90;;;;;;5017251;28;20208;-85
2022/09/23 04:19:56;;;;;;;5.13;4.47;;;5.40;99.90;;;;;;5017941;28;20182;-85
2022/09/23 04:22:22;;;;;;;4.43;3.83;;;5.50;99.90;;;;;;5015705;28;20191;-85
2022/09/23 04:24:48;;;;;;;7.10;4.20;;;5.50;99.90;;;;;;4997891;28;20199;-85
2022/09/23 04:27:13;;;;;;;5.97;4.37;;;5.50;99.90;;;;;;4997775;28;20210;-84
2022/09/23 04:29:39;;;;;;;4.67;4.17;;;5.60;99.90;;;;;;5014327;28;20220;-85
2022/09/23 04:32:05;;;;;;;5.37;4.00;;;5.60;99.90;;;;;;5014160;28;20266;-85
2022/09/23 04:34:31;;;;;;;4.10;3.57;;;5.60;99.90;;;;;;4998004;28;20185;-85
2022/09/23 04:37:12;;;;;;;4.27;3.80;;;5.60;99.90;;;;;;4998163;28;20211;-85
2022/09/23 04:39:38;;;;;;;4.47;4.07;;;5.50;99.90;;;;;;5014340;28;20589;-84
2022/09/23 04:42:04;;;;;;;4.90;4.17;;;5.50;99.90;;;;;;5001719;28;20262;-84
2022/09/23 04:44:30;;;;;;;6.43;4.20;;;5.40;99.90;;;;;;5014399;28;20177;-84
2022/09/23 04:46:57;;;;;;;4.07;3.37;;;5.40;99.90;;;;;;5013203;28;20248;-84
2022/09/23 04:49:23;;;;;;;3.97;3.67;;;5.40;99.90;;;;;;5031934;28;20178;-84
2022/09/23 04:51:49;;;;;;;6.00;3.97;;;5.30;99.90;;;;;;5016483;28;20187;-84
2022/09/23 04:54:15;;;;;;;4.73;3.80;;;5.30;99.90;;;;;;5019345;28;20183;-85
2022/09/23 04:56:41;;;;;;;4.53;4.00;;;5.20;99.90;;;;;;5019932;28;20231;-85
2022/09/23 04:59:07;;;;;;;5.53;4.30;;;5.20;99.90;;;;;;5021192;28;20638;-85
2022/09/23 05:01:35;;;;;;;6.23;4.43;;;5.10;99.90;;;;;;5021279;28;20192;-85
2022/09/23 05:04:06;;;;;;;5.77;4.37;;;5.10;99.90;;;;;;5037851;28;20167;-85
2022/09/23 05:06:33;;;;;;;5.00;3.70;;;5.10;99.90;;;;;;5037555;28;20209;-85
2022/09/23 05:09:00;;;;;;;9.03;4.43;;;5.00;99.90;;;;;;5047953;28;20571;-85
2022/09/23 05:11:28;;;;;;;5.10;4.40;;;5.00;99.90;;;;;;5037837;28;20519;-85
2022/09/23 05:14:02;;;;;;;5.00;4.23;;;5.00;99.90;;;;;;5037126;28;20178;-85
2022/09/23 05:16:28;;;;;;;4.80;4.10;;;5.00;99.90;;;;;;5021049;28;20193;-85
2022/09/23 05:18:55;;;;;;;5.63;4.53;;;4.90;99.90;;;;;;5044169;28;20219;-85
2022/09/23 05:21:25;;;;;;;6.23;4.73;;;4.90;99.90;;;;;;5023196;28;20174;-85
2022/09/23 05:23:53;;;;;;;6.07;4.40;;;4.90;99.90;;;;;;5020561;28;20196;-85
2022/09/23 05:26:21;;;;;;;5.10;4.60;;;4.90;99.90;;;;;;5013834;28;20206;-85
2022/09/23 05:28:47;;;;;;;5.10;4.43;;;4.80;99.90;;;;;;5000867;28;20206;-85
2022/09/23 05:31:23;;;;;;;6.53;4.60;;;4.90;99.90;;;;;;5006154;28;20178;-84
2022/09/23 05:34:00;;;;;;;5.27;4.77;;;4.90;99.90;;;;;;5020103;28;20269;-85
2022/09/23 05:36:34;;;;;;;7.03;5.10;;;4.90;99.90;;;;;;5014773;28;20194;-87
2022/09/23 05:39:02;;;;;;;7.57;4.70;;;4.90;99.90;;;;;;5016977;28;20265;-85
2022/09/23 05:41:34;;;;;;;5.43;4.50;;;4.90;99.90;;;;;;5020443;28;20240;-85
2022/09/23 05:44:01;;;;;;;4.90;4.40;;;5.00;99.90;;;;;;5020532;28;20177;-85
2022/09/23 05:46:29;;;;;;;7.03;5.20;;;5.00;99.90;;;;;;5014238;28;20199;-85
2022/09/23 05:48:56;;;;;;;7.50;6.00;;;5.00;99.90;;;;;;5008787;28;20707;-85
2022/09/23 05:51:25;;;;;;;7.30;5.80;;;5.10;99.90;;;;;;5013861;28;20178;-85
2022/09/23 05:53:52;;;;;;;7.77;7.00;;;5.20;99.90;;;;;;5016941;28;20178;-85
2022/09/23 05:56:23;;;;;;;7.33;6.53;;;5.30;99.90;;;;;;5029395;28;20674;-85
2022/09/23 05:58:50;;;;;;;6.70;5.40;;;5.40;99.90;;;;;;5020240;28;20210;-85
2022/09/23 06:01:23;;;;;;;6.93;5.33;;;5.50;99.90;;;;;;5030215;28;20216;-85
2022/09/23 06:03:54;;;;;;;5.40;4.90;;;5.60;99.90;;;;;;5013665;28;20216;-85
2022/09/23 06:06:26;;;;;;;6.27;4.87;;;5.70;99.90;;;;;;5014457;28;20195;-85
2022/09/23 06:08:52;;;;;;;6.37;4.87;;;5.80;99.90;;;;;;4997673;28;20249;-85
2022/09/23 06:11:18;;;;;;;5.20;4.50;;;5.90;99.90;;;;;;4998210;28;20280;-85
2022/09/23 06:13:44;;;;;;;7.83;4.90;;;6.00;99.90;;;;;;5025366;28;20220;-85
2022/09/23 06:16:12;;;;;;;5.33;4.47;;;6.10;99.90;;;;;;5017579;28;20226;-85
2022/09/23 06:18:44;;;;;;;6.87;5.30;;;6.20;99.90;;;;;;5007544;28;20198;-86
2022/09/23 06:21:16;;;;;;;5.80;5.20;;;6.20;99.90;;;;;;5015987;28;20182;-85
2022/09/23 06:23:43;;;;;;;7.43;4.83;;;6.20;99.90;;;;;;5014222;28;20199;-86
2022/09/23 06:26:11;;;;;;;6.53;4.83;;;6.20;99.90;;;;;;5018891;28;20247;-85
2022/09/23 06:28:40;;;;;;;7.33;5.50;;;6.30;99.90;;;;;;5019014;28;20683;-85
2022/09/23 06:31:17;;;;;;;7.03;5.20;;;6.40;99.90;;;;;;5040966;28;20202;-85
2022/09/23 06:33:49;;;;;;;6.20;5.17;;;6.50;99.90;;;;;;5018608;28;20261;-85
2022/09/23 06:36:18;;;;;;;5.93;4.77;;;6.60;99.90;;;;;;5034259;28;20195;-85
2022/09/23 06:38:44;;;;;;;8.47;5.20;;;6.70;99.90;;;;;;5033038;28;20205;-84
2022/09/23 06:41:11;;;;;;;7.63;5.67;;;6.80;99.90;;;;;;5017959;28;20206;-84
2022/09/23 06:43:37;;;;;;;5.73;5.13;;;6.90;99.90;;;;;;5016905;28;20217;-85
2022/09/23 06:46:06;;;;;;;5.97;5.00;;;7.00;99.90;;;;;;5021726;28;20228;-85
2022/09/23 06:48:35;;;;;;;8.20;4.77;;;7.10;99.90;;;;;;5050923;28;20201;-85
2022/09/23 06:51:06;;;;;;;8.40;4.90;;;7.30;99.90;;;;;;5049964;28;20210;-84
2022/09/23 06:53:35;;;;;;;7.07;4.87;;;7.40;99.90;;;;;;5029460;28;20181;-84
2022/09/23 06:56:18;;;;;;;5.43;4.47;;;7.50;99.90;;;;;;5016301;28;20196;-84
2022/09/23 06:58:45;;;;;;;7.30;5.50;;;7.60;99.90;;;;;;4997266;28;20233;-85
2022/09/23 07:01:15;;;;;;;7.27;6.50;;;7.70;99.90;;;;;;5033485;28;20211;-85
2022/09/23 07:03:43;;;;;;;7.20;5.50;;;7.90;99.90;;;;;;5017613;28;20859;-84
2022/09/23 07:06:11;;;;;;;8.00;5.40;;;8.00;99.90;;;;;;5016791;28;20239;-84
2022/09/23 07:08:43;;;;;;;9.53;5.27;;;8.10;99.90;;;;;;5032682;28;20209;-84
2022/09/23 07:11:12;;;;;;;7.53;5.00;;;8.20;99.90;;;;;;5015822;28;20284;-84
2022/09/23 07:13:40;;;;;;;5.93;5.33;;;8.30;99.90;;;;;;5016168;28;20256;-84
2022/09/23 07:16:08;;;;;;;7.80;5.20;;;8.40;99.90;;;;;;5032745;28;20197;-84
2022/09/23 07:18:35;;;;;;;8.07;5.47;;;8.50;99.90;;;;;;5016409;28;20184;-84
2022/09/23 07:21:11;;;;;;;6.83;5.17;;;8.70;99.90;;;;;;5016618;28;20599;-84
2022/09/23 07:23:40;;;;;;;5.50;4.50;;;8.80;99.90;;;;;;5016355;28;20191;-84
2022/09/23 07:26:09;;;;;;;6.13;4.80;;;8.90;99.90;;;;;;5016749;28;20209;-84
2022/09/23 07:28:38;;;;;;;5.67;4.87;;;9.10;99.90;;;;;;5031761;28;20220;-84
2022/09/23 07:31:13;;;;;;;5.37;4.87;;;9.20;99.90;;;;;;5035371;28;20208;-84
2022/09/23 07:33:42;;;;;;;6.63;4.83;;;9.30;99.90;;;;;;5036111;28;20275;-84
2022/09/23 07:36:15;;;;;;;6.97;4.70;;;9.40;99.90;;;;;;5034903;28;20284;-85
2022/09/23 07:38:43;;;;;;;4.77;4.13;;;9.50;99.90;;;;;;5035781;28;20188;-84
2022/09/23 07:41:11;;;;;;;5.10;4.33;;;9.50;99.90;;;;;;5035838;28;20592;-84
2022/09/23 07:43:39;;;;;;;6.77;4.60;;;9.50;99.90;;;;;;5052420;28;20188;-84
2022/09/23 07:46:10;;;;;;;5.27;4.67;;;9.60;99.90;;;;;;5035289;28;20208;-85
2022/09/23 07:48:37;;;;;;;5.50;4.27;;;9.70;99.90;;;;;;5035309;28;20215;-84
2022/09/23 07:51:15;;;;;;;6.03;4.67;;;9.70;99.90;;;;;;5035221;28;20205;-84
2022/09/23 07:53:45;;;;;;;5.10;4.60;;;9.80;99.90;;;;;;5052710;28;20173;-83
2022/09/23 07:56:12;;;;;;;5.20;4.30;;;9.90;99.90;;;;;;5030877;28;20209;-84
2022/09/23 07:58:38;;;;;;;7.13;4.10;;;9.90;99.90;;;;;;5032650;28;20220;-84
2022/09/23 08:01:06;;;;;;;4.63;4.00;;;9.90;99.90;;;;;;5015859;28;20182;-84
2022/09/23 08:03:32;;;;;;;6.67;4.27;;;10.00;99.90;;;;;;5032421;28;20208;-84
2022/09/23 08:06:10;;;;;;;10.63;5.07;;;10.10;99.90;;;;;;5015954;28;20213;-84
2022/09/23 08:08:39;;;;;;;5.47;4.30;;;10.20;99.90;;;;;;5032186;28;20206;-84
2022/09/23 08:11:09;;;;;;;4.80;4.33;;;10.20;99.90;;;;;;5019063;28;20699;-84
2022/09/23 08:13:35;;;;;;;4.77;4.30;;;10.30;99.90;;;;;;5024709;28;20203;-84
2022/09/23 08:16:01;;;;;;;6.70;4.30;;;10.30;99.90;;;;;;5042651;28;20200;-84
2022/09/23 08:18:28;;;;;;;6.73;4.53;;;10.30;99.90;;;;;;5024300;28;20178;-84
2022/09/23 08:20:54;;;;;;;5.73;4.13;;;10.40;99.90;;;;;;5024888;28;20637;-84
2022/09/23 08:23:20;;;;;;;7.00;4.50;;;10.40;99.90;;;;;;5060522;28;20247;-84
2022/09/23 08:25:46;;;;;;;6.00;4.87;;;10.50;99.90;;;;;;5020036;28;20298;-84
2022/09/23 08:28:17;;;;;;;6.17;4.80;;;10.60;99.90;;;;;;5028903;28;20581;-84
2022/09/23 08:30:48;;;;;;;5.33;4.30;;;10.60;99.90;;;;;;5044389;28;20202;-84
2022/09/23 08:33:14;;;;;;;7.13;4.67;;;10.70;99.90;;;;;;5028517;28;20170;-83
2022/09/23 08:35:40;;;;;;;5.47;4.70;;;10.80;99.90;;;;;;5046298;28;20665;-83
2022/09/23 08:38:06;;;;;;;6.30;4.63;;;10.90;99.90;;;;;;5025297;28;20224;-83
2022/09/23 08:40:38;;;;;;;6.63;4.47;;;11.00;99.90;;;;;;5028664;28;20634;-84
2022/09/23 08:43:13;;;;;;;5.77;4.87;;;11.00;99.90;;;;;;5029438;28;20209;-84
2022/09/23 08:45:42;;;;;;;5.10;4.60;;;11.10;99.90;;;;;;5045967;28;20197;-84
2022/09/23 08:48:15;;;;;;;6.37;4.40;;;11.20;99.90;;;;;;5023190;28;20229;-84
2022/09/23 08:50:46;;;;;;;6.47;4.60;;;11.20;99.90;;;;;;5029352;28;20595;-85
2022/09/23 08:53:23;;;;;;;7.00;4.50;;;11.30;99.90;;;;;;5027273;28;20282;-84
2022/09/23 08:55:52;;;;;;;6.17;4.30;;;11.40;99.90;;;;;;5024965;28;20401;-84
2022/09/23 08:58:58;;;;;;;6.63;5.20;;;11.60;99.90;;;;;;5027685;28;20264;-84
2022/09/23 09:01:43;;;;;;;5.40;4.83;;;11.70;99.90;;;;;;5046147;28;20189;-84
2022/09/23 09:04:30;;;;;;;5.00;4.50;;;11.80;99.90;;;;;;5042616;28;20218;-84
2022/09/23 09:07:12;;;;;;;5.60;4.73;;;11.80;99.90;;;;;;5044271;28;20186;-84
2022/09/23 09:10:03;;;;;;;6.80;4.97;;;11.90;99.90;;;;;;5027485;28;20176;-84
2022/09/23 09:12:32;;;;;;;6.20;4.57;;;12.00;99.90;;;;;;5027595;28;20655;-84
2022/09/23 09:15:22;;;;;;;6.80;5.00;;;12.10;99.90;;;;;;5028821;28;20209;-85
2022/09/23 09:17:51;;;;;;;5.83;4.47;;;12.20;99.90;;;;;;5022917;28;20194;-84
2022/09/23 09:20:31;;;;;;;6.03;4.23;;;12.30;99.90;;;;;;5027674;28;20181;-84
2022/09/23 09:23:01;;;;;;;5.03;4.57;;;12.50;99.90;;;;;;5044229;28;20271;-85
2022/09/23 09:25:48;;;;;;;4.83;4.40;;;12.60;99.90;;;;;;5044031;28;20276;-84
2022/09/23 09:28:29;;;;;;;6.83;4.10;;;12.80;99.90;;;;;;5033277;28;20219;-84
2022/09/23 09:31:30;;;;;;;4.67;4.17;;;13.00;99.90;;;;;;5033522;28;20177;-84
2022/09/23 09:34:03;;;;;;;4.37;3.70;;;13.30;99.90;;;;;;5017587;28;20189;-84
2022/09/23 09:36:42;;;;;;;7.10;4.47;;;13.50;99.90;;;;;;5024256;28;20202;-84
2022/09/23 09:39:12;;;;;;;4.20;3.80;;;13.60;99.90;;;;;;5016153;28;20178;-84
2022/09/23 09:41:44;;;;;;;6.53;4.33;;;13.70;99.90;;;;;;5023019;28;20200;-84
2022/09/23 09:44:23;;;;;;;5.20;3.83;;;13.90;99.90;;;;;;5035973;28;20174;-84
2022/09/23 09:47:27;;;;;;;4.87;4.37;;;13.90;99.90;;;;;;5033071;28;20492;-84
2022/09/23 09:50:01;;;;;;;5.47;4.40;;;14.00;99.90;;;;;;5016081;28;20182;-84
2022/09/23 09:52:31;;;;;;;6.30;4.27;;;14.00;99.90;;;;;;5011884;28;20175;-85
2022/09/23 09:55:16;;;;;;;4.73;3.83;;;14.20;99.90;;;;;;5031372;28;20232;-84
2022/09/23 09:58:00;;;;;;;4.37;3.97;;;14.40;99.90;;;;;;5028668;28;20187;-85
2022/09/23 10:00:26;;;;;;;5.50;4.50;;;14.50;99.90;;;;;;5020375;28;20189;-85
2022/09/23 10:02:54;;;;;;;5.53;4.93;;;14.60;99.90;;;;;;5024055;28;20189;-85
2022/09/23 10:05:27;;;;;;;5.60;4.87;;;14.60;99.90;;;;;;5030931;28;20223;-85
2022/09/23 10:07:53;;;;;;;6.20;5.37;;;14.80;99.90;;;;;;5006179;28;20669;-85
2022/09/23 10:10:24;;;;;;;6.70;5.33;;;15.00;99.90;;;;;;5034780;28;20178;-85
2022/09/23 10:12:51;;;;;;;6.07;4.97;;;15.20;99.90;;;;;;5018604;28;20179;-85
2022/09/23 10:15:33;;;;;;;6.13;4.60;;;15.40;99.90;;;;;;5013625;28;20198;-85
2022/09/23 10:18:00;;;;;;;6.40;4.80;;;15.50;99.90;;;;;;5021571;28;20191;-85
2022/09/23 10:20:36;;;;;;;4.80;4.30;;;15.60;99.90;;;;;;4998254;28;20251;-85
2022/09/23 10:23:08;;;;;;;5.93;4.87;;;15.80;99.90;;;;;;5034469;28;20192;-85
2022/09/23 10:25:36;;;;;;;6.23;5.10;;;15.90;99.90;;;;;;5019093;28;20213;-85
2022/09/23 10:28:45;;;;;;;7.07;4.90;;;16.00;99.90;;;;;;5051875;28;20209;-85
2022/09/23 10:31:11;;;;;;;6.07;4.80;;;16.30;99.90;;;;;;5003540;28;20257;-85
2022/09/23 10:34:06;;;;;;;6.13;4.63;;;16.40;99.90;;;;;;5018358;28;20180;-85
2022/09/23 10:37:13;;;;;;;4.43;3.93;;;16.60;99.90;;;;;;5027027;28;20193;-85
2022/09/23 10:48:41;;;;;;;6.40;4.70;;;17.40;99.90;;;;;;5034940;28;20218;-85
2022/09/23 10:51:23;;;;;;;5.95;4.80;;;17.60;99.90;;;;;;5017533;28;20224;-85
2022/09/23 10:54:17;;;;;;;5.20;4.65;;;17.80;99.90;;;;;;5018901;28;20618;-85
2022/09/23 10:56:56;;;;;;;4.15;3.72;;;18.00;99.90;;;;;;5032582;28;20178;-85
2022/09/23 10:59:46;;;;;;;5.22;4.28;;;18.30;99.90;;;;;;5015099;28;20174;-85
2022/09/23 11:02:44;;;;;;;5.97;4.30;;;18.50;99.90;;;;;;4999984;28;20185;-84
2022/09/23 11:05:50;;;;;;;5.35;3.85;;;18.60;99.90;;;;;;4998465;28;20199;-85
2022/09/23 11:08:31;;;;;;;4.70;4.18;;;18.60;99.90;;;;;;5023330;28;20247;-85
2022/09/23 11:11:16;;;;;;;7.57;4.65;;;18.90;99.90;;;;;;5037307;28;20177;-86
2022/09/23 11:14:53;;;;;;;4.60;4.10;;;19.10;99.90;;;;;;5038013;28;20181;-85
2022/09/23 11:17:43;;;;;;;5.00;4.38;;;19.00;99.90;;;;;;4899235;28;20186;-85
2022/09/23 11:20:22;;;;;;;5.65;4.32;;;18.90;99.90;;;;;;5025849;28;20186;-85
2022/09/23 11:22:57;;;;;;;5.97;3.95;;;19.00;99.90;;;;;;5030980;28;20197;-86
2022/09/23 11:25:50;;;;;;;4.32;3.50;;;19.10;99.90;;;;;;4998800;28;20197;-85
2022/09/23 11:28:28;;;;;;;6.43;4.03;;;19.30;99.90;;;;;;5015013;28;20194;-85
2022/09/23 11:31:20;;;;;;;9.65;4.50;;;19.30;99.90;;;;;;5034199;28;20182;-85
2022/09/23 11:33:49;;;;;;;3.65;3.35;;;19.40;99.90;;;;;;5015807;28;20241;-85
2022/09/23 11:36:35;;;;;;;3.67;3.33;;;19.60;99.90;;;;;;4998702;28;20190;-85
2022/09/23 11:39:25;;;;;;;6.10;4.15;;;19.90;99.90;;;;;;5004320;28;20273;-85
2022/09/23 11:41:55;;;;;;;5.57;3.72;;;19.80;99.90;;;;;;5000329;28;20194;-85
2022/09/23 11:44:30;;;;;;;3.28;2.97;;;20.00;99.90;;;;;;5027315;28;20289;-86
2022/09/23 11:47:20;;;;;;;5.10;3.13;;;20.10;99.90;;;;;;5010520;28;20185;-85
2022/09/23 11:49:52;;;;;;;5.68;3.08;;;20.40;99.90;;;;;;5033950;28;20178;-85
2022/09/23 11:52:57;;;;;;;4.35;2.90;;;20.50;99.90;;;;;;5017241;28;20178;-86
2022/09/23 11:55:34;;;;;;;4.63;3.50;;;20.70;99.90;;;;;;4995436;28;20202;-85
2022/09/23 11:58:09;;;;;;;6.70;3.13;;;20.90;99.90;;;;;;5021918;28;20198;-86
2022/09/23 12:00:43;;;;;;;4.13;2.78;;;20.90;99.90;;;;;;5022725;28;20185;-86
2022/09/23 12:03:22;;;;;;;4.13;3.03;;;21.00;99.90;;;;;;5043884;28;20181;-86
2022/09/23 12:05:55;;;;;;;3.92;3.53;;;21.20;99.90;;;;;;5016625;28;20237;-86
2022/09/23 12:08:38;;;;;;;3.55;3.10;;;21.20;99.90;;;;;;5016882;28;20672;-86
2022/09/23 12:11:28;;;;;;;4.05;3.47;;;21.30;99.90;;;;;;5013447;28;20246;-86
2022/09/23 12:14:08;;;;;;;4.95;2.85;;;21.30;99.90;;;;;;5011268;28;20173;-86
2022/09/23 12:16:57;;;;;;;4.10;2.90;;;21.40;99.90;;;;;;5017931;28;20195;-86
2022/09/23 12:19:50;;;;;;;2.67;2.40;;;21.30;99.90;;;;;;5016184;28;20173;-86
2022/09/23 12:22:27;;;;;;;3.85;3.00;;;21.50;99.90;;;;;;5038304;28;20163;-85
2022/09/23 12:25:11;;;;;;;6.85;2.83;;;21.50;99.90;;;;;;5024010;28;20238;-86
2022/09/23 12:27:44;;;;;;;3.20;2.90;;;21.60;99.90;;;;;;5039336;28;20206;-86
2022/09/23 12:30:23;;;;;;;4.45;2.42;;;21.30;99.90;;;;;;5021059;28;20181;-85
2022/09/23 12:32:50;;;;;;;2.83;2.47;;;21.60;99.90;;;;;;5013412;28;20232;-86
2022/09/23 12:35:34;;;;;;;7.25;2.80;;;21.70;99.90;;;;;;5032282;28;20198;-86
2022/09/23 12:38:02;;;;;;;2.40;2.20;;;21.80;99.90;;;;;;5011536;28;20185;-87
2022/09/23 12:44:43;;;;;;;3.90;2.38;;;21.40;99.90;;;;;;5058951;28;20169;-90
2022/09/23 12:47:26;;;;;;;2.58;2.20;;;21.40;99.90;;;;;;5025716;28;20181;-91
2022/09/23 12:49:53;;;;;;;2.78;2.35;;;21.60;99.90;;;;;;5026323;28;20213;-90
2022/09/23 12:52:32;;;;;;;3.17;2.08;;;21.70;99.90;;;;;;5025825;28;20198;-88
2022/09/23 12:55:21;;;;;;;2.75;2.00;;;21.80;99.90;;;;;;5013953;28;20205;-88
2022/09/23 12:57:47;;;;;;;2.78;2.08;;;21.80;99.90;;;;;;5023395;28;20280;-89
2022/09/23 13:00:31;;;;;;;2.47;1.92;;;21.80;99.90;;;;;;5022540;28;20186;-88
2022/09/23 13:08:41;;;;;;;3.85;2.10;;;22.10;99.90;;;;;;5052695;28;20195;-89
2022/09/23 13:11:17;;;;;;;4.43;2.00;;;22.00;99.90;;;;;;5057894;28;20270;-83
2022/09/23 13:13:47;;;;;;;3.55;2.13;;;22.10;99.90;;;;;;5026702;28;20173;-83
2022/09/23 13:16:19;;;;;;;3.55;2.28;;;22.10;99.90;;;;;;5019050;28;20202;-82
2022/09/23 13:18:53;;;;;;;3.53;2.10;;;22.10;99.90;;;;;;5019968;28;20205;-81
2022/09/23 13:21:43;;;;;;;3.53;2.20;;;22.30;99.90;;;;;;5005788;28;20173;-81
2022/09/23 13:24:13;;;;;;;4.68;2.60;;;22.50;99.90;;;;;;5023321;28;20193;-82
2022/09/23 13:26:49;;;;;;;2.30;2.10;;;22.50;99.90;;;;;;5020654;28;20204;-82
2022/09/23 13:29:28;;;;;;;4.53;2.53;;;22.50;99.90;;;;;;5027354;28;20178;-82
2022/09/23 13:31:57;;;;;;;3.50;2.08;;;22.40;99.90;;;;;;5027506;28;20181;-81
2022/09/23 13:34:29;;;;;;;2.85;1.95;;;22.30;99.90;;;;;;5023199;28;20214;-82
2022/09/23 13:36:56;;;;;;;1.95;1.75;;;22.20;99.90;;;;;;5023699;28;20269;-82
2022/09/23 13:39:27;;;;;;;3.35;2.35;;;22.20;99.90;;;;;;5026377;28;20223;-82
2022/09/23 13:41:59;;;;;;;4.03;1.88;;;22.10;99.90;;;;;;5021298;28;20178;-84
2022/09/23 13:44:26;;;;;;;2.90;2.08;;;22.00;99.90;;;;;;5021579;28;20177;-83
2022/09/23 13:46:58;;;;;;;2.55;2.03;;;21.80;99.90;;;;;;5016521;28;20179;-85